Terminal Aerodrome Forecast
Issued by NWS

Home | Current Version | Previous Version | Graphics & Text | Print | Product List | Glossary On
Versions: 1 2 3 4 5 6 7 8 9 10 11 12 13 14 15 16 17 18 19 20 21 22 23 24 25
000
FTUS43 KICT 240224 AAA
TAFRSL
TAF AMD
KRSL 240224Z 2402/2424 08008KT P6SM FEW010 BKN150
      TEMPO 2402/2404 BKN010
     FM240400 11008KT 5SM BR OVC008
     FM241200 15010KT 1SM BR VCSH OVC003
     FM241600 16010KT 6SM BR OVC015
     FM241900 16013KT P6SM VCTS SCT020 BKN035CB=

USA.gov is the U.S. government's official web portal to all federal, state and local government web resources and services.